地図

経路データ

SID SEASON NUMBER BASIN SUBBASIN NAME ISO_TIME NATURE LAT LON WMO_WIND WMO_PRES WMO_AGENCY TRACK_TYPE DIST2LAND LANDFALL IFLAG USA_AGENCY USA_ATCF_ID USA_LAT USA_LON USA_RECORD USA_STATUS USA_WIND USA_PRES USA_SSHS USA_R34_NE USA_R34_SE USA_R34_SW USA_R34_NW USA_R50_NE USA_R50_SE USA_R50_SW USA_R50_NW USA_R64_NE USA_R64_SE USA_R64_SW USA_R64_NW USA_POCI USA_ROCI USA_RMW USA_EYE TOKYO_LAT TOKYO_LON TOKYO_GRADE TOKYO_WIND TOKYO_PRES TOKYO_R50_DIR TOKYO_R50_LONG TOKYO_R50_SHORT TOKYO_R30_DIR TOKYO_R30_LONG TOKYO_R30_SHORT TOKYO_LAND CMA_LAT CMA_LON CMA_CAT CMA_WIND CMA_PRES HKO_LAT HKO_LON HKO_CAT HKO_WIND HKO_PRES NEWDELHI_LAT NEWDELHI_LON NEWDELHI_GRADE NEWDELHI_WIND NEWDELHI_PRES NEWDELHI_CI NEWDELHI_DP NEWDELHI_POCI REUNION_LAT REUNION_LON REUNION_TYPE REUNION_WIND REUNION_PRES REUNION_TNUM REUNION_CI REUNION_RMW REUNION_R34_NE REUNION_R34_SE REUNION_R34_SW REUNION_R34_NW REUNION_R50_NE REUNION_R50_SE REUNION_R50_SW REUNION_R50_NW REUNION_R64_NE REUNION_R64_SE REUNION_R64_SW REUNION_R64_NW BOM_LAT BOM_LON BOM_TYPE BOM_WIND BOM_PRES BOM_TNUM BOM_CI BOM_RMW BOM_R34_NE BOM_R34_SE BOM_R34_SW BOM_R34_NW BOM_R50_NE BOM_R50_SE BOM_R50_SW BOM_R50_NW BOM_R64_NE BOM_R64_SE BOM_R64_SW BOM_R64_NW BOM_ROCI BOM_POCI BOM_EYE BOM_POS_METHOD BOM_PRES_METHOD NADI_LAT NADI_LON NADI_CAT NADI_WIND NADI_PRES WELLINGTON_LAT WELLINGTON_LON WELLINGTON_WIND WELLINGTON_PRES DS824_LAT DS824_LON DS824_STAGE DS824_WIND DS824_PRES TD9636_LAT TD9636_LON TD9636_STAGE TD9636_WIND TD9636_PRES TD9635_LAT TD9635_LON TD9635_WIND TD9635_PRES TD9635_ROCI NEUMANN_LAT NEUMANN_LON NEUMANN_CLASS NEUMANN_WIND NEUMANN_PRES MLC_LAT MLC_LON MLC_CLASS MLC_WIND MLC_PRES USA_GUST BOM_GUST BOM_GUST_PER REUNION_GUST REUNION_GUST_PER USA_SEAHGT USA_SEARAD_NE USA_SEARAD_SE USA_SEARAD_SW USA_SEARAD_NW STORM_SPEED STORM_DIR
1979275N06159 1979 97 WP MM TIP 1979-10-02 05:00:00 NR 5.50000 158.700 main 1235 1235 __________O___ -1 5.50000 158.700 1 1 0
1979275N06159 1979 97 WP MM TIP 1979-10-02 06:00:00 NR 5.48914 158.705 main 1235 1235 __________P___ -1 5.48914 158.705 1 1 0
1979275N06159 1979 97 WP MM TIP 1979-10-02 09:00:00 NR 5.45838 158.711 main 1235 1227 __________P___ -1 5.45838 158.711 1 1 191
1979275N06159 1979 97 WP MM TIP 1979-10-02 12:00:00 NR 5.43416 158.686 main 1227 1220 __________P___ -1 5.43416 158.686 1 1 251
1979275N06159 1979 97 WP MM TIP 1979-10-02 15:00:00 NR 5.42137 158.605 main 1220 1213 __________P___ -1 5.42137 158.605 1 2 268
1979275N06159 1979 97 WP MM TIP 1979-10-02 18:00:00 NR 5.42488 158.447 main 1207 1194 __________P___ -1 5.42488 158.447 1 4 274
1979275N06159 1979 97 WP MM TIP 1979-10-02 21:00:00 NR 5.44951 158.186 main 1194 1178 __________P___ -1 5.44951 158.186 1 6 277
1979275N06159 1979 97 WP MM TIP 1979-10-03 00:00:00 NR 5.50000 157.800 main 1178 1158 __________O___ -1 5.50000 157.800 1 9 278
1979275N06159 1979 97 WP MM TIP 1979-10-03 03:00:00 NR 5.57857 157.280 main 1158 1129 __________P___ -1 5.57857 157.280 1 11 279
1979275N06159 1979 97 WP MM TIP 1979-10-03 06:00:00 NR 5.67781 156.678 main 1133 1110 __________P___ -1 5.67781 156.678 1 12 280
1979275N06159 1979 97 WP MM TIP 1979-10-03 09:00:00 NR 5.78808 156.062 main 1110 1091 __________P___ -1 5.78808 156.062 1 12 281
1979275N06159 1979 97 WP MM TIP 1979-10-03 12:00:00 NR 5.90000 155.500 main 1091 1080 __________O___ -1 5.90000 155.500 1 10 284
1979275N06159 1979 97 WP MM TIP 1979-10-03 15:00:00 NR 6.04039 155.061 main 1080 1076 __________P___ -1 6.04039 155.061 1 9 289
1979275N06159 1979 97 WP MM TIP 1979-10-03 18:00:00 NR 6.17473 154.688 main 1083 1074 __________P___ -1 6.17473 154.688 1 7 289
1979275N06159 1979 97 WP MM TIP 1979-10-03 21:00:00 NR 6.27172 154.370 main 1080 1069 __________P___ -1 6.27172 154.370 1 6 282
1979275N06159 1979 97 WP MM TIP 1979-10-04 00:00:00 TS 6.30000 154.100 main 1069 1052 O________OO___ jtwc_wp WP231979 6.30000 154.100 20 -1 6.30000 154.100 TC 20 6.30000 154.100 1 20 8 271
1979275N06159 1979 97 WP MM TIP 1979-10-04 03:00:00 TS 6.28871 153.596 main 1052 1029 P________PP___ WP231979 6.36780 153.418 22 -1 6.36780 153.418 TC 22 6.20961 153.775 1 21 9 264
1979275N06159 1979 97 WP MM TIP 1979-10-04 06:00:00 TS 6.20086 153.174 1004 tokyo main 1029 1005 OO_______OP___ jtwc_wp WP231979 6.30000 153.000 25 -1 6.20000 152.900 2 1004 0 0 0 6.30000 153.000 TC 25 6.05237 153.505 1 22 5 236
1979275N06159 1979 97 WP MM TIP 1979-10-04 09:00:00 TS 5.98323 153.139 main 1005 986 PP_______PP___ WP231979 6.02241 153.023 25 -1 6.05506 153.223 2 1004 0 0 6.02241 153.023 TC 25 5.86894 153.332 1 23 5 160
1979275N06159 1979 97 WP MM TIP 1979-10-04 12:00:00 TS 5.74000 153.340 1004 tokyo main 978 974 OO_______OO___ jtwc_wp WP231979 5.70000 153.300 25 -1 5.90000 153.500 2 1004 0 0 0 5.70000 153.300 TC 25 5.70000 153.300 1 25 6 132
1979275N06159 1979 97 WP MM TIP 1979-10-04 15:00:00 TS 5.57294 153.591 main 977 970 PP_______PP___ WP231979 5.50501 153.578 25 -1 5.73497 153.707 2 1004 0 0 5.50501 153.578 TC 25 5.54675 153.501 1 25 7 113
1979275N06159 1979 97 WP MM TIP 1979-10-04 18:00:00 TS 5.48772 153.949 1004 tokyo main 977 977 OOO______OP___ jtwc_wp WP231979 5.40000 153.900 25 -1 5.60000 153.900 2 1004 0 0 0 6.00000 155.000 1 23 1004 5.40000 153.900 TC 25 5.42281 153.833 1 25 6 100
1979275N06159 1979 97 WP MM TIP 1979-10-04 21:00:00 TS 5.46329 154.230 main 989 989 PPP______PP___ WP231979 5.35497 154.193 25 -1 5.51993 154.105 2 1004 0 0 5.98503 154.695 1 26 1004 5.35497 154.193 TC 25 5.36242 154.198 1 25 5 87
1979275N06159 1979 97 WP MM TIP 1979-10-05 00:00:00 TS 5.51500 154.465 1004 tokyo main 1002 1002 OOOO_____OO___ jtwc_wp WP231979 5.40000 154.500 25 -1 5.50000 154.400 2 1004 0 0 0 6.00000 154.400 1 29 1004 5.50000 154.500 TD 25 1004 5.40000 154.500 TC 25 5.40000 154.500 1 25 6 73
1979275N06159 1979 97 WP MM TIP 1979-10-05 03:00:00 TS 5.62327 154.764 main 1026 1026 PPPP_____PP___ WP231979 5.49005 154.940 25 -1 5.50515 155.012 2 1004 0 0 6.07000 154.128 1 29 1003 5.57265 155.047 TD 25 1003 5.49005 154.940 TC 25 5.58641 154.661 1 26 6 59
1979275N06159 1979 97 WP MM TIP 1979-10-05 06:00:00 TS 5.79866 154.941 1004 tokyo main 1051 1051 OOOO_____OP___ jtwc_wp WP231979 5.70000 155.200 25 -1 5.60000 155.400 2 1004 0 0 0 6.20000 153.900 1 29 1003 5.70000 155.300 TD 25 1002 5.70000 155.200 TC 25 5.86727 154.737 1 27 5 2
1979275N06159 1979 97 WP MM TIP 1979-10-05 09:00:00 TS 6.07576 154.765 main 1077 1072 PPPP_____PP___ WP231979 6.07746 155.028 27 -1 5.79763 155.028 2 1003 0 0 6.39249 153.720 1 29 1003 5.92001 155.070 TD 27 1002 6.07746 155.028 TC 27 6.18951 154.720 1 28 8 318
1979275N06159 1979 97 WP MM TIP 1979-10-05 12:00:00 TS 6.40000 154.400 1002 tokyo main 1091 1091 OOOO_____OO___ jtwc_wp WP231979 6.50000 154.600 30 -1 6.10000 154.400 2 1002 0 0 0 6.60000 153.600 1 29 1003 6.20000 154.600 TD 30 1002 6.50000 154.600 TC 30 6.50000 154.600 1 30 10 311
1979275N06159 1979 97 WP MM TIP 1979-10-05 15:00:00 TS 6.69764 154.038 main 1108 1108 PPPP_____PP___ WP231979 6.84515 154.078 30 -1 6.50746 154.005 2 1002 0 0 6.74999 153.542 1 29 1002 6.50003 154.185 TD 30 1002 6.84515 154.078 TC 30 6.73806 154.339 1 31 9 309
1979275N06159 1979 97 WP MM TIP 1979-10-05 18:00:00 TS 6.95881 153.698 1002 tokyo main 1130 1127 OOOO_____OP___ jtwc_wp WP231979 7.10000 153.600 30 -1 6.90000 153.700 2 1002 0 0 0 6.90000 153.500 1 29 1002 6.80000 153.800 TD 30 1002 7.10000 153.600 TC 30 6.95289 153.988 1 32 7 309
1979275N06159 1979 97 WP MM TIP 1979-10-05 21:00:00 TS 7.15558 153.461 main 1146 1143 PPPP_____PP___ WP231979 7.22990 153.390 32 -1 7.14497 153.462 2 1001 0 0 7.10751 153.400 1 29 1001 7.07997 153.505 TD 30 1002 7.22990 153.390 TC 32 7.14122 153.617 1 33 5 311
1979275N06159 1979 97 WP MM TIP 1979-10-06 00:00:00 TS 7.30000 153.300 1000 tokyo main 1151 1151 OOOO_____OO___ jtwc_wp WP231979 7.30000 153.300 35 0 7.30000 153.300 2 1000 0 0 0 7.30000 153.300 1 29 1001 7.30000 153.300 TD 30 1002 7.30000 153.300 TC 35 7.30000 153.300 2 35 4 314
1979275N06159 1979 97 WP MM TIP 1979-10-06 03:00:00 TS 7.41621 153.191 main 1160 1160 PPPP_____PP___ WP231979 7.39999 153.193 35 0 7.41498 153.185 2 998 0 0 7.41499 153.257 1 29 1001 7.42247 153.177 TD 30 1001 7.39999 153.193 TC 35 7.44483 153.143 2 35 3 318
1979275N06159 1979 97 WP MM TIP 1979-10-06 06:00:00 TS 7.50997 153.108 35 996 tokyo main 1168 1168 OOOO_____OP___ jtwc_wp WP231979 7.50000 153.100 35 0 7.50000 153.100 3 35 996 0 9 50 50 0 7.50000 153.200 1 29 1001 7.50000 153.100 TD 30 1000 7.50000 153.100 TC 35 7.55980 153.047 2 35 3 317
1979275N06159 1979 97 WP MM TIP 1979-10-06 09:00:00 TS 7.61123 153.008 main 1177 1177 PPPP_____PP___ WP231979 7.59999 153.007 35 0 7.60750 153.000 3 35 996 0 9 50 50 7.60751 153.058 1 29 1001 7.60750 153.000 TD 30 1000 7.59999 153.007 TC 35 7.64487 152.978 2 35 3 313
1979275N06159 1979 97 WP MM TIP 1979-10-06 12:00:00 TS 7.70000 152.900 35 996 tokyo main 1186 1184 OOOO_____OO___ jtwc_wp WP231979 7.70000 152.900 35 0 7.70000 152.900 3 35 996 0 9 50 50 0 7.70000 152.900 1 29 1001 7.70000 152.900 TD 30 1000 7.70000 152.900 TC 35 7.70000 152.900 2 35 3 309
1979275N06159 1979 97 WP MM TIP 1979-10-06 15:00:00 TS 7.79182 152.782 main 1195 1193 PPPP_____PP___ WP231979 7.83000 152.758 37 0 7.77248 152.815 3 37 996 0 9 55 55 7.77249 152.800 1 29 1001 7.77249 152.808 TD 30 1000 7.83000 152.758 TC 37 7.77346 152.756 2 36 3 299
1979275N06159 1979 97 WP MM TIP 1979-10-06 18:00:00 TS 7.83542 152.650 40 996 tokyo main 1193 1189 OOOO_____OP___ jtwc_wp WP231979 7.90000 152.600 40 0 7.80000 152.700 3 40 996 0 9 60 60 0 7.80000 152.700 1 29 1001 7.80000 152.700 TD 30 1000 7.90000 152.600 TC 40 7.81253 152.600 2 37 3 277
1979275N06159 1979 97 WP MM TIP 1979-10-06 21:00:00 TS 7.82798 152.479 main 1189 1175 PPPP_____PP___ WP231979 7.86751 152.420 40 0 7.81003 152.485 3 40 996 0 9 60 60 7.80998 152.573 1 29 1001 7.81751 152.535 TD 30 1000 7.86751 152.420 TC 40 7.79533 152.444 2 38 3 247
1979275N06159 1979 97 WP MM TIP 1979-10-07 00:00:00 TS 7.70000 152.333 40 996 tokyo main 1175 1142 OOOO_____OO___ jtwc_wp WP231979 7.70000 152.300 40 0 7.70000 152.300 3 40 996 0 9 60 60 0 7.70000 152.400 1 29 1001 7.70000 152.400 TD 30 1000 7.70000 152.300 TC 40 7.70000 152.300 2 40 5 202
1979275N06159 1979 97 WP MM TIP 1979-10-07 03:00:00 TS 7.37801 152.294 main 1142 1096 PPPP_____PP___ WP231979 7.36498 152.365 40 0 7.39496 152.308 3 40 996 0 9 60 60 7.39504 152.135 1 29 1000 7.33746 152.423 TD 30 1000 7.36498 152.365 TC 40 7.41062 152.169 2 40 7 187
1979275N06159 1979 97 WP MM TIP 1979-10-07 06:00:00 TS 6.99333 152.242 40 996 tokyo main 1096 1060 OOOO_____OP___ jtwc_wp WP231979 7.00000 152.400 40 0 7.00000 152.300 3 40 996 0 9 60 60 0 7.00000 151.900 1 29 1000 6.90000 152.400 TD 30 1000 7.00000 152.400 TC 40 7.05999 152.055 2 40 8 200
1979275N06159 1979 97 WP MM TIP 1979-10-07 09:00:00 TS 6.64286 152.020 main 1049 1036 PPPP_____PP___ WP231979 6.73257 152.142 40 0 6.57507 152.042 3 40 996 0 9 60 60 6.54495 151.760 1 29 1000 6.51760 152.070 TD 30 1000 6.73257 152.142 TC 40 6.75437 151.963 2 40 7 216
1979275N06159 1979 97 WP MM TIP 1979-10-07 12:00:00 TS 6.45000 151.850 40 996 tokyo main 1035 1024 OOOO_____OO___ jtwc_wp WP231979 6.60000 151.900 40 0 6.30000 151.800 3 40 996 0 9 60 60 0 6.30000 151.800 1 29 1000 6.30000 151.800 TD 30 1000 6.60000 151.900 TC 40 6.60000 151.900 2 40 1 205
1979275N06159 1979 97 WP MM TIP 1979-10-07 15:00:00 TS 6.51372 151.962 main 1038 1038 PPPP_____PP___ WP231979 6.59500 151.977 40 0 6.30750 151.813 3 40 996 0 9 60 60 6.54511 152.120 1 29 999 6.33753 151.962 TD 30 1000 6.59500 151.977 TC 40 6.70215 151.924 2 40 4 39
1979275N06159 1979 97 WP MM TIP 1979-10-07 18:00:00 TS 6.79457 152.128 40 996 tokyo main 1072 1072 OOOO_____OP___ jtwc_wp WP231979 6.80000 152.100 40 0 6.60000 151.900 3 40 996 0 9 60 60 0 7.00000 152.500 1 29 998 6.60000 152.200 TD 30 1000 6.80000 152.100 TC 40 6.96742 151.967 2 40 7 16
1979275N06159 1979 97 WP MM TIP 1979-10-07 21:00:00 TS 7.21439 152.166 main 1118 1118 PPPP_____PP___ WP231979 7.23249 152.052 40 0 7.14750 151.930 3 40 994 0 9 67 67 7.34992 152.762 1 33 996 6.97497 152.225 TD 32 997 7.23249 152.052 TC 40 7.34897 151.977 2 40 9 358
1979275N06159 1979 97 WP MM TIP 1979-10-08 00:00:00 TS 7.73333 152.083 40 992 tokyo main 1173 1173 OOOO_____OO___ jtwc_wp WP231979 7.80000 151.900 40 0 7.80000 151.900 3 40 992 0 9 75 75 0 7.70000 152.800 2 38 995 7.50000 152.100 TS 35 995 7.80000 151.900 TC 40 7.80000 151.900 2 40 11 345
1979275N06159 1979 97 WP MM TIP 1979-10-08 03:00:00 TS 8.23386 151.891 main 1226 1226 PPPP_____PP___ WP231979 8.35746 151.695 40 0 8.31487 151.832 3 42 992 0 9 87 87 8.01995 152.520 2 38 995 8.12744 151.875 TS 35 995 8.35746 151.695 TC 40 8.22598 151.729 2 41 12 333
1979275N06159 1979 97 WP MM TIP 1979-10-08 06:00:00 TS 8.75158 151.560 45 992 tokyo main 1290 1290 OOOO_____OP___ jtwc_wp WP231979 8.90000 151.400 40 0 8.80000 151.600 3 45 992 0 9 100 100 0 8.40000 152.000 2 38 995 8.80000 151.500 TS 35 995 8.90000 151.400 TC 40 8.70949 151.459 2 42 13 323
1979275N06159 1979 97 WP MM TIP 1979-10-08 09:00:00 TS 9.25599 151.107 main 1341 1338 PPPP_____PP___ WP231979 9.34243 151.045 42 0 9.27017 151.102 3 45 992 0 9 100 100 8.91253 151.395 2 38 995 9.43012 150.973 TS 37 995 9.34243 151.045 TC 42 9.23825 151.084 2 43 14 316
1979275N06159 1979 97 WP MM TIP 1979-10-08 12:00:00 TS 9.78333 150.567 45 992 tokyo main 1379 1376 OOOO_____OO___ jtwc_wp WP231979 9.80000 150.600 45 0 9.80000 150.500 3 45 992 0 9 100 100 0 9.50000 150.700 2 38 995 10.0000 150.400 TS 40 995 9.80000 150.600 TC 45 9.80000 150.600 2 45 15 317
1979275N06159 1979 97 WP MM TIP 1979-10-08 15:00:00 TS 10.3734 150.052 main 1432 1429 PPPP_____PP___ WP231979 10.3772 150.117 47 0 10.4995 150.052 3 47 991 0 9 110 110 10.0850 150.000 2 38 995 10.4571 149.987 TS 42 992 10.3772 150.117 TC 47 10.4443 150.038 2 46 16 317
1979275N06159 1979 97 WP MM TIP 1979-10-08 18:00:00 TS 10.9841 149.444 50 990 tokyo main 1484 1484 OOOO_____OP___ jtwc_wp WP231979 11.0000 149.500 50 0 11.2000 149.500 4 50 990 0 9 120 120 0 10.7000 149.300 2 38 995 10.9000 149.500 TS 45 990 11.0000 149.500 TC 50 11.1047 149.367 2 47 18 313
1979275N06159 1979 97 WP MM TIP 1979-10-08 21:00:00 TS 11.6086 148.703 main 1541 1541 PPPP_____PP___ WP231979 11.6524 148.718 50 0 11.7676 148.668 4 50 990 0 9 135 135 11.3942 148.717 2 43 992 11.4724 148.783 TS 45 990 11.6524 148.718 TC 50 11.7128 148.613 2 48 20 306
1979275N06159 1979 97 WP MM TIP 1979-10-09 00:00:00 TS 12.1333 147.833 50 990 tokyo main 1591 1591 OOOO_____OO___ jtwc_wp WP231979 12.2000 147.800 50 0 12.2000 147.700 4 50 990 0 9 150 150 0 12.0000 148.000 3 48 990 12.0000 147.900 TS 45 990 12.2000 147.800 TC 50 12.2000 147.800 2 50 20 295
1979275N06159 1979 97 WP MM TIP 1979-10-09 03:00:00 TS 12.4712 146.827 main 1635 1635 PPPP_____PP___ WP231979 12.5327 146.785 52 0 12.5175 146.727 4 52 985 0 9 150 150 12.3835 146.858 3 48 987 12.3677 146.900 TS 47 987 12.5327 146.785 TC 52 12.4927 146.905 2 52 20 285
1979275N06159 1979 97 WP MM TIP 1979-10-09 06:00:00 TS 12.6599 145.829 55 980 tokyo main 1660 1660 OOOO_____OP___ jtwc_wp WP231979 12.7000 145.800 55 0 12.7000 145.800 4 55 980 9 30 30 9 150 150 0 12.6000 145.700 3 48 985 12.6000 145.900 STS 50 985 12.7000 145.800 TC 55 12.6593 145.974 2 55 18 279
1979275N06159 1979 97 WP MM TIP 1979-10-09 09:00:00 TS 12.7599 144.981 main 1678 1678 PPPP_____PP___ WP231979 12.7797 144.967 57 0 12.7799 144.967 4 57 977 9 30 30 9 150 150 12.7369 144.895 3 53 980 12.7374 145.010 STS 52 980 12.7797 144.967 TC 57 12.7460 145.080 2 57 15 275
1979275N06159 1979 97 WP MM TIP 1979-10-09 12:00:00 TS 12.8000 144.300 60 975 tokyo main 1688 1688 OOOO_____OO___ jtwc_wp WP231979 12.8000 144.300 60 0 12.8000 144.300 4 60 975 9 30 30 9 150 150 0 12.8000 144.300 3 58 975 12.8000 144.300 STS 55 975 12.8000 144.300 TC 60 12.8000 144.300 2 60 12 275
1979275N06159 1979 97 WP MM TIP 1979-10-09 15:00:00 TS 12.8527 143.806 main 1708 1708 PPPP_____PP___ WP231979 12.8421 143.805 67 1 12.8496 143.855 4 62 970 9 32 32 9 150 150 12.8422 143.820 3 63 970 12.8571 143.840 STS 57 970 12.8421 143.805 TC 67 12.8828 143.711 2 65 9 277
1979275N06159 1979 97 WP MM TIP 1979-10-09 18:00:00 TS 12.9080 143.407 65 965 tokyo main 1717 1712 OOOO_____OP___ jtwc_wp WP231979 12.9000 143.400 75 1 12.9000 143.500 5 65 965 9 35 35 9 150 150 0 12.9000 143.400 4 68 965 12.9000 143.500 STS 60 965 12.9000 143.400 TC 75 12.9482 143.242 2 70 8 279
1979275N06159 1979 97 WP MM TIP 1979-10-09 21:00:00 TS 12.9816 142.961 main 1719 1709 PPPP_____PP___ WP231979 12.9775 142.942 77 1 12.9350 143.050 5 72 960 9 37 37 9 150 150 13.0426 142.885 4 72 960 12.9425 143.092 STS 65 960 12.9775 142.942 TC 77 13.0145 142.852 2 75 9 282
1979275N06159 1979 97 WP MM TIP 1979-10-10 00:00:00 TS 13.0833 142.533 80 955 tokyo main 1714 1708 OOOO_____OO___ jtwc_wp WP231979 13.1000 142.500 80 1 13.0000 142.600 5 80 955 9 40 40 9 150 150 0 13.2000 142.400 4 77 955 13.0000 142.700 T 70 955 13.1000 142.500 TC 80 13.1000 142.500 4 80 8 287
1979275N06159 1979 97 WP MM TIP 1979-10-10 03:00:00 TS 13.2215 142.145 main 1711 1711 PPPP_____PP___ WP231979 13.3000 142.078 82 1 13.1199 142.192 5 82 952 9 40 40 9 150 150 13.2923 142.027 4 82 952 13.0848 142.365 T 70 952 13.3000 142.078 TC 82 13.2321 142.129 4 82 8 292
1979275N06159 1979 97 WP MM TIP 1979-10-10 06:00:00 TS 13.3807 141.781 85 950 tokyo main 1718 1710 OOOO_____OP___ jtwc_wp WP231979 13.5000 141.700 85 2 13.3000 141.800 5 85 950 9 40 40 9 150 150 0 13.4000 141.700 5 87 950 13.2000 142.000 T 70 950 13.5000 141.700 TC 85 13.3844 141.785 4 85 8 295
1979275N06159 1979 97 WP MM TIP 1979-10-10 09:00:00 TS 13.5470 141.419 main 1713 1689 PPPP_____PP___ WP231979 13.6148 141.400 87 2 13.5575 141.393 5 87 945 9 45 45 9 162 162 13.5999 141.358 5 92 945 13.3501 141.515 T 77 945 13.6148 141.400 TC 87 13.5446 141.448 4 87 8 294
1979275N06159 1979 97 WP MM TIP 1979-10-10 12:00:00 TS 13.7000 141.050 90 940 tokyo main 1689 1648 OOOO_____OO___ jtwc_wp WP231979 13.7000 141.100 90 2 13.8000 141.000 5 90 940 9 50 50 9 175 175 0 13.8000 141.000 5 97 940 13.5000 141.000 ST 85 940 13.7000 141.100 TC 90 13.7000 141.100 4 90 8 289
1979275N06159 1979 97 WP MM TIP 1979-10-10 15:00:00 TS 13.8039 140.647 main 1638 1608 PPPP_____PP___ WP231979 13.7925 140.715 102 3 13.9223 140.665 5 90 930 9 52 52 9 187 187 13.9150 140.600 5 106 930 13.5850 140.527 ST 87 930 13.7925 140.715 TC 102 13.8163 140.662 4 100 8 285
1979275N06159 1979 97 WP MM TIP 1979-10-10 18:00:00 TS 13.9047 140.236 90 920 tokyo main 1597 1557 OOOO_____OP___ jtwc_wp WP231979 13.9000 140.300 115 4 14.0000 140.300 5 90 920 9 55 55 9 200 200 0 14.0000 140.200 6 116 920 13.7000 140.100 ST 90 920 13.9000 140.300 TC 115 13.9281 140.218 4 110 9 286
1979275N06159 1979 97 WP MM TIP 1979-10-10 21:00:00 TS 14.0415 139.791 main 1557 1527 PPPP_____PP___ WP231979 14.0426 139.848 122 4 14.0928 139.748 5 110 910 9 62 62 9 212 212 14.0850 139.805 6 121 910 13.9350 139.683 ST 100 910 14.0426 139.848 TC 122 14.0507 139.815 4 120 8 291
1979275N06159 1979 97 WP MM TIP 1979-10-11 00:00:00 TS 14.2000 139.450 130 900 tokyo main 1529 1511 OOOO_____OO___ jtwc_wp WP231979 14.2000 139.500 130 4 14.2000 139.300 5 130 900 9 70 70 9 225 225 0 14.2000 139.500 6 126 900 14.2000 139.400 SuperT 110 900 14.2000 139.500 TC 130 14.2000 139.500 4 130 5 306
1979275N06159 1979 97 WP MM TIP 1979-10-11 03:00:00 TS 14.3559 139.347 main 1513 1513 PPPP_____PP___ WP231979 14.3274 139.405 135 4 14.3198 139.225 5 130 900 9 95 95 9 237 237 14.3774 139.347 6 131 897 14.3999 139.347 SuperT 115 897 14.3274 139.405 TC 135 14.3836 139.355 4 132 4 345
1979275N06159 1979 97 WP MM TIP 1979-10-11 06:00:00 TS 14.5495 139.349 130 900 tokyo main 1515 1515 OOOO_____OP___ jtwc_wp WP231979 14.5000 139.400 140 5 14.5000 139.300 5 130 900 9 120 120 9 250 250 0 14.6000 139.300 6 136 895 14.6000 139.400 SuperT 120 895 14.5000 139.400 TC 140 14.5969 139.297 4 135 4 0
1979275N06159 1979 97 WP MM TIP 1979-10-11 09:00:00 TS 14.7990 139.331 main 1520 1520 PPPP_____PP___ WP231979 14.7775 139.315 140 5 14.7550 139.337 5 130 900 9 120 120 9 275 250 14.8275 139.322 6 136 897 14.8200 139.430 SuperT 125 900 14.7775 139.315 TC 140 14.8368 139.265 4 137 6 351
1979275N06159 1979 97 WP MM TIP 1979-10-11 12:00:00 TS 15.1000 139.267 130 900 tokyo main 1526 1512 OOOO_____OO___ jtwc_wp WP231979 15.1000 139.200 140 5 15.1000 139.300 5 130 900 9 120 120 8 300 250 0 15.1000 139.300 6 136 900 15.1000 139.400 SuperT 130 905 15.1000 139.200 TC 140 15.1000 139.200 4 140 7 342
1979275N06159 1979 97 WP MM TIP 1979-10-11 15:00:00 TS 15.4492 139.105 main 1512 1498 PPPP_____PP___ WP231979 15.3999 139.080 145 5 15.5575 139.103 5 125 897 9 120 120 8 300 250 15.4426 139.088 6 136 900 15.4925 139.253 SuperT 135 900 15.3999 139.080 TC 145 15.4028 139.027 4 145 8 331
1979275N06159 1979 97 WP MM TIP 1979-10-11 18:00:00 TS 15.8038 138.868 120 895 tokyo main 1501 1478 OOOO_____OP___ jtwc_wp WP231979 15.7000 138.900 150 5 16.0000 138.800 5 120 895 9 120 120 8 300 250 0 15.8000 138.800 6 136 900 15.9000 139.000 SuperT 140 895 15.7000 138.900 TC 150 15.7225 138.810 4 150 8 323
1979275N06159 1979 97 WP MM TIP 1979-10-11 21:00:00 TS 16.1181 138.580 main 1478 1454 PPPP_____PP___ WP231979 16.0075 138.623 155 5 16.2951 138.450 5 120 885 9 120 120 8 325 250 16.1299 138.557 6 140 890 16.2376 138.665 SuperT 147 887 16.0075 138.623 TC 155 16.0309 138.564 4 155 8 315
1979275N06159 1979 97 WP MM TIP 1979-10-12 00:00:00 TS 16.3833 138.267 120 875 tokyo main 1457 1433 OOOO_____OO___ jtwc_wp WP231979 16.3000 138.300 160 5 16.5000 138.100 5 120 875 9 120 120 8 350 250 0 16.4000 138.300 6 145 880 16.5000 138.300 SuperT 155 880 16.3000 138.300 TC 160 16.3000 138.300 4 160 8 310
1979275N06159 1979 97 WP MM TIP 1979-10-12 03:00:00 TS 16.6092 137.973 main 1433 1407 PPPP_____PP___ WP231979 16.5875 137.993 162 5 16.6799 137.842 5 130 872 9 135 135 8 350 275 16.5875 137.992 6 150 875 16.6874 137.985 SuperT 160 875 16.5875 137.993 TC 162 16.5256 138.035 4 161 7 305
1979275N06159 1979 97 WP MM TIP 1979-10-12 06:00:00 TS 16.7675 137.693 140 870 tokyo main 1410 1380 OOOO_____OP___ jtwc_wp WP231979 16.8000 137.700 165 5 16.8000 137.600 5 140 870 9 150 150 8 350 300 0 16.7000 137.700 6 155 870 16.8000 137.700 SuperT 165 870 16.8000 137.700 TC 165 16.7050 137.758 4 162 6 295
1979275N06159 1979 97 WP MM TIP 1979-10-12 09:00:00 TS 16.8541 137.421 main 1384 1364 PPPP_____PP___ WP231979 16.8950 137.427 165 5 16.8726 137.277 5 132 880 9 150 150 8 400 312 16.7574 137.485 6 150 872 16.8725 137.435 SuperT 152 877 16.8950 137.427 TC 165 16.8319 137.476 4 163 5 283
1979275N06159 1979 97 WP MM TIP 1979-10-12 12:00:00 TS 16.8833 137.183 125 890 tokyo main 1364 1344 OOOO_____OO___ jtwc_wp WP231979 16.9000 137.200 165 5 16.9000 137.000 5 125 890 9 150 150 8 450 325 0 16.8000 137.300 6 145 875 16.9000 137.200 SuperT 140 885 16.9000 137.200 TC 165 16.9000 137.200 4 165 4 277
1979275N06159 1979 97 WP MM TIP 1979-10-12 15:00:00 TS 16.8994 137.015 main 1344 1325 PPPP_____PP___ WP231979 16.8649 137.065 160 5 16.9223 136.900 5 125 895 9 150 150 8 450 337 16.9299 137.115 6 140 882 16.9149 137.008 SuperT 132 890 16.8649 137.065 TC 160 16.8993 136.938 4 160 3 268
1979275N06159 1979 97 WP MM TIP 1979-10-12 18:00:00 TS 16.8741 136.831 125 900 tokyo main 1325 1291 OOOO_____OP___ jtwc_wp WP231979 16.8000 136.900 155 5 16.9000 136.800 5 125 900 9 150 150 8 450 350 0 17.0000 136.900 6 136 890 16.9000 136.800 SuperT 125 895 16.8000 136.900 TC 155 16.8449 136.684 4 155 5 257
1979275N06159 1979 97 WP MM TIP 1979-10-12 21:00:00 TS 16.7960 136.532 main 1291 1257 PPPP_____PP___ WP231979 16.7426 136.565 150 5 16.8001 136.515 5 117 902 9 175 150 8 525 300 16.8650 136.607 6 136 895 16.8576 136.500 SuperT 117 900 16.7426 136.565 TC 150 16.7680 136.438 4 150 6 255
1979275N06159 1979 97 WP MM TIP 1979-10-13 00:00:00 TS 16.7167 136.217 110 905 tokyo main 1257 1237 OOOO_____OO___ jtwc_wp WP231979 16.7000 136.200 145 5 16.7000 136.200 5 110 905 7 200 150 7 600 250 0 16.7000 136.300 6 136 900 16.8000 136.200 SuperT 110 905 16.7000 136.200 TC 145 16.7000 136.200 4 145 5 259
1979275N06159 1979 97 WP MM TIP 1979-10-13 03:00:00 TS 16.6926 135.978 main 1237 1218 PPPP_____PP___ WP231979 16.6924 135.928 137 5 16.6774 136.000 5 110 905 7 225 150 7 600 275 16.6774 136.043 6 136 900 16.7424 135.985 SuperT 110 905 16.6924 135.928 TC 137 16.6732 135.984 4 140 4 267
1979275N06159 1979 97 WP MM TIP 1979-10-13 06:00:00 TS 16.6937 135.762 110 905 tokyo main 1218 1188 OOOO_____OP___ jtwc_wp WP231979 16.7000 135.700 130 4 16.7000 135.800 5 110 905 7 250 150 7 600 300 0 16.7000 135.800 6 136 900 16.7000 135.800 SuperT 110 905 16.7000 135.700 TC 130 16.6621 135.772 4 135 4 271
1979275N06159 1979 97 WP MM TIP 1979-10-13 09:00:00 TS 16.6971 135.537 main 1188 1169 PPPP_____PP___ WP231979 16.6924 135.500 127 4 16.7425 135.515 5 110 907 7 250 150 7 600 300 16.6925 135.542 6 136 902 16.6924 135.615 SuperT 110 907 16.6924 135.500 TC 127 16.6700 135.550 4 130 4 273
1979275N06159 1979 97 WP MM TIP 1979-10-13 12:00:00 TS 16.7167 135.300 110 910 tokyo main 1169 1150 OOOO_____OO___ jtwc_wp WP231979 16.7000 135.300 125 4 16.8000 135.200 5 110 910 7 250 150 7 600 300 0 16.7000 135.300 6 136 905 16.7000 135.400 SuperT 110 910 16.7000 135.300 TC 125 16.7000 135.300 4 125 5 276
1979275N06159 1979 97 WP MM TIP 1979-10-13 15:00:00 TS 16.7476 135.055 main 1150 1125 PPPP_____PP___ WP231979 16.7349 135.080 125 4 16.8500 134.900 5 110 912 7 237 162 7 600 300 16.7348 135.130 6 131 910 16.6774 135.130 SuperT 110 912 16.7349 135.080 TC 125 16.7534 135.012 4 125 5 280
1979275N06159 1979 97 WP MM TIP 1979-10-13 18:00:00 TS 16.8046 134.766 110 915 tokyo main 1125 1092 OOOO_____OP___ jtwc_wp WP231979 16.8000 134.800 125 4 16.9000 134.600 5 110 915 7 225 175 7 600 300 0 16.8000 134.900 6 126 915 16.7000 134.800 SuperT 110 915 16.8000 134.800 TC 125 16.8274 134.695 4 125 7 284
1979275N06159 1979 97 WP MM TIP 1979-10-13 21:00:00 TS 16.9009 134.389 main 1092 1060 PPPP_____PP___ WP231979 16.9002 134.400 125 4 16.9425 134.300 5 105 917 7 212 187 7 600 300 16.9002 134.473 6 121 917 16.8500 134.408 SuperT 105 917 16.9002 134.400 TC 125 16.9127 134.356 4 125 8 285
1979275N06159 1979 97 WP MM TIP 1979-10-14 00:00:00 TS 17.0000 134.000 100 920 tokyo main 1060 1033 OOOO_____OO___ jtwc_wp WP231979 17.0000 134.000 125 4 17.0000 134.000 5 100 920 9 200 200 7 600 300 0 17.0000 134.000 6 116 920 17.0000 134.000 SuperT 100 920 17.0000 134.000 TC 125 17.0000 134.000 4 125 7 283
1979275N06159 1979 97 WP MM TIP 1979-10-14 03:00:00 TS 17.0493 133.697 main 1033 1011 PPPP_____PP___ WP231979 17.0497 133.765 125 4 17.0924 133.715 5 100 920 9 200 200 7 600 300 17.0498 133.650 6 116 920 16.9999 133.642 SuperT 100 920 17.0497 133.765 TC 125 17.0546 133.643 4 125 6 280
1979275N06159 1979 97 WP MM TIP 1979-10-14 06:00:00 TS 17.1020 133.379 100 920 tokyo main 1011 981 OOOO_____OP___ jtwc_wp WP231979 17.1000 133.500 125 4 17.2000 133.400 5 100 920 9 200 200 7 600 300 0 17.1000 133.300 6 116 920 17.0000 133.300 SuperT 100 920 17.1000 133.500 TC 125 17.1123 133.272 4 125 7 281
1979275N06159 1979 97 WP MM TIP 1979-10-14 09:00:00 TS 17.1903 132.957 main 981 944 PPPP_____PP___ WP231979 17.1853 133.015 125 4 17.2850 133.015 5 100 920 9 200 200 7 600 325 17.1851 132.850 6 116 920 17.1124 132.957 SuperT 100 920 17.1853 133.015 TC 125 17.1889 132.890 4 125 9 285
1979275N06159 1979 97 WP MM TIP 1979-10-14 12:00:00 TS 17.3167 132.517 100 920 tokyo main 944 922 OOOO_____OO___ jtwc_wp WP231979 17.3000 132.500 125 4 17.4000 132.600 5 100 920 9 200 200 7 600 350 0 17.3000 132.400 6 116 920 17.3000 132.600 SuperT 100 920 17.3000 132.500 TC 125 17.3000 132.500 4 125 8 291
1979275N06159 1979 97 WP MM TIP 1979-10-14 15:00:00 TS 17.4872 132.137 main 917 893 PPPP_____PP___ WP231979 17.4272 132.142 125 4 17.5999 132.208 5 100 920 9 200 200 7 600 350 17.4349 132.035 6 116 920 17.5575 132.208 SuperT 100 920 17.4272 132.142 TC 125 17.4763 132.087 4 125 8 297
1979275N06159 1979 97 WP MM TIP 1979-10-14 18:00:00 TS 17.6809 131.762 100 920 tokyo main 898 866 OOOO_____OP___ jtwc_wp WP231979 17.6000 131.800 125 4 17.8000 131.800 5 100 920 9 200 200 7 600 350 0 17.6000 131.700 6 116 920 17.8000 131.800 SuperT 100 920 17.6000 131.800 TC 125 17.6852 131.671 4 125 9 296
1979275N06159 1979 97 WP MM TIP 1979-10-14 21:00:00 TS 17.8682 131.332 main 863 841 PPPP_____PP___ WP231979 17.8502 131.335 125 4 17.9001 131.327 5 100 920 9 200 200 7 600 375 17.7925 131.342 6 116 920 17.9150 131.385 SuperT 100 920 17.8502 131.335 TC 125 17.9014 131.269 4 125 9 295
1979275N06159 1979 97 WP MM TIP 1979-10-15 00:00:00 TS 18.0500 130.933 100 920 tokyo main 838 818 OOOO_____OO___ jtwc_wp WP231979 18.1000 130.900 125 4 18.0000 130.900 5 100 920 9 200 200 7 600 400 0 18.0000 131.000 6 116 920 18.0000 131.000 SuperT 100 920 18.1000 130.900 TC 125 18.1000 130.900 4 125 8 298
1979275N06159 1979 97 WP MM TIP 1979-10-15 03:00:00 TS 18.2214 130.635 main 818 808 PPPP_____PP___ WP231979 18.2723 130.627 125 4 18.1998 130.620 5 100 920 9 187 187 7 600 375 18.2074 130.692 6 116 920 18.1424 130.670 SuperT 100 920 18.2723 130.627 TC 125 18.2341 130.572 4 125 6 302
1979275N06159 1979 97 WP MM TIP 1979-10-15 06:00:00 TS 18.3749 130.380 100 920 tokyo main 815 797 OOOO_____OP___ jtwc_wp WP231979 18.4000 130.400 125 4 18.4000 130.400 5 100 920 9 175 175 8 600 350 0 18.4000 130.400 6 116 920 18.3000 130.400 SuperT 100 920 18.4000 130.400 TC 125 18.3497 130.282 4 125 6 298
1979275N06159 1979 97 WP MM TIP 1979-10-15 09:00:00 TS 18.4955 130.103 main 797 788 PPPP_____PP___ WP231979 18.5001 130.085 125 4 18.5075 130.150 5 100 920 9 175 175 8 600 350 18.5575 130.077 6 116 920 18.4424 130.192 SuperT 100 920 18.5001 130.085 TC 125 18.4654 130.026 4 125 6 296
1979275N06159 1979 97 WP MM TIP 1979-10-15 12:00:00 TS 18.6167 129.850 100 920 tokyo main 780 780 OOOO_____OO___ jtwc_wp WP231979 18.6000 129.800 125 4 18.6000 129.900 5 100 920 9 175 175 8 600 350 0 18.7000 129.800 6 116 920 18.6000 130.000 SuperT 100 920 18.6000 129.800 TC 125 18.6000 129.800 4 125 5 301
1979275N06159 1979 97 WP MM TIP 1979-10-15 15:00:00 TS 18.7614 129.641 main 770 760 PPPP_____PP___ WP231979 18.7274 129.635 122 4 18.7201 129.613 5 100 922 9 175 175 8 600 350 18.8349 129.642 6 111 922 18.7926 129.735 SuperT 100 922 18.7274 129.635 TC 122 18.7661 129.588 4 123 5 312
1979275N06159 1979 97 WP MM TIP 1979-10-15 18:00:00 TS 18.9425 129.467 100 925 tokyo main 760 741 OOOO_____OP___ jtwc_wp WP231979 18.9000 129.500 120 4 18.9000 129.400 5 100 925 9 175 175 8 600 350 0 19.0000 129.500 6 106 925 19.0000 129.500 SuperT 100 925 18.9000 129.500 TC 120 18.9548 129.405 4 122 5 323
1979275N06159 1979 97 WP MM TIP 1979-10-15 21:00:00 TS 19.1760 129.309 main 742 733 PPPP_____PP___ WP231979 19.1350 129.293 120 4 19.1924 129.392 5 97 925 9 175 175 8 600 350 19.2426 129.250 6 106 925 19.1849 129.385 SuperT 100 925 19.1350 129.293 TC 120 19.1661 129.244 4 121 6 330
1979275N06159 1979 97 WP MM TIP 1979-10-16 00:00:00 TS 19.4333 129.167 95 925 tokyo main 734 717 OOOO_____OO___ jtwc_wp WP231979 19.4000 129.100 120 4 19.5000 129.400 5 95 925 9 175 175 1 600 350 0 19.5000 129.000 6 106 925 19.4000 129.300 SuperT 100 925 19.4000 129.100 TC 120 19.4000 129.100 4 120 6 332
1979275N06159 1979 97 WP MM TIP 1979-10-16 03:00:00 TS 19.6750 129.027 main 719 710 PPPP_____PP___ WP231979 19.6424 128.992 115 4 19.7076 129.223 5 95 925 9 175 175 1 575 350 19.7000 128.827 6 106 927 19.7000 129.165 SuperT 100 927 19.6424 128.992 TC 115 19.6574 128.961 4 117 6 332
1979275N06159 1979 97 WP MM TIP 1979-10-16 06:00:00 TS 19.9225 128.889 95 925 tokyo main 713 701 OOOO_____OP___ jtwc_wp WP231979 19.9000 128.900 110 3 19.9000 129.000 5 95 925 9 175 175 1 550 350 0 19.9000 128.700 6 106 930 20.0000 129.000 SuperT 100 930 19.9000 128.900 TC 110 19.9349 128.835 4 115 6 332
1979275N06159 1979 97 WP MM TIP 1979-10-16 09:00:00 TS 20.1917 128.741 main 701 697 PPPP_____PP___ WP231979 20.2150 128.750 110 3 20.1425 128.842 5 95 927 9 175 175 1 525 350 20.1500 128.592 6 106 930 20.2075 128.792 SuperT 100 932 20.2150 128.750 TC 110 20.2199 128.717 4 112 6 333
1979275N06159 1979 97 WP MM TIP 1979-10-16 12:00:00 TS 20.4500 128.600 95 930 tokyo main 700 691 OOOO_____OO___ jtwc_wp WP231979 20.5000 128.600 110 3 20.4000 128.700 5 95 930 9 175 175 1 500 350 0 20.4000 128.500 6 106 930 20.4000 128.600 SuperT 100 935 20.5000 128.600 TC 110 20.5000 128.600 4 110 5 332
1979275N06159 1979 97 WP MM TIP 1979-10-16 15:00:00 TS 20.6486 128.482 main 694 688 PPPP_____PP___ WP231979 20.6425 128.500 107 3 20.6500 128.542 5 95 930 9 175 175 1 525 350 20.5850 128.400 6 101 932 20.6350 128.485 SuperT 100 935 20.6425 128.500 TC 107 20.7369 128.467 4 107 5 333
1979275N06159 1979 97 WP MM TIP 1979-10-16 18:00:00 TS 20.8617 128.372 95 930 tokyo main 697 687 OOOO_____OP___ jtwc_wp WP231979 20.8000 128.400 105 3 20.9000 128.400 5 95 930 9 175 175 1 550 350 0 20.8000 128.300 5 97 935 20.9000 128.400 SuperT 100 935 20.8000 128.400 TC 105 20.9700 128.335 4 105 5 336
1979275N06159 1979 97 WP MM TIP 1979-10-16 21:00:00 TS 21.1434 128.251 main 696 692 PPPP_____PP___ WP231979 21.1050 128.250 102 3 21.1275 128.292 5 95 932 9 187 175 1 550 350 21.1200 128.193 5 97 935 21.1850 128.307 SuperT 95 935 21.1050 128.250 TC 102 21.2181 128.211 4 102 7 340
1979275N06159 1979 97 WP MM TIP 1979-10-17 00:00:00 TS 21.4833 128.133 95 935 tokyo main 698 687 OOOO_____OO___ jtwc_wp WP231979 21.5000 128.100 100 3 21.4000 128.200 5 95 935 3 200 175 1 550 350 0 21.5000 128.100 5 97 935 21.5000 128.200 ST 90 935 21.5000 128.100 TC 100 21.5000 128.100 4 100 8 344
1979275N06159 1979 97 WP MM TIP 1979-10-17 03:00:00 TS 21.8724 128.028 main 687 659 PPPP_____PP___ WP231979 21.9575 127.985 97 3 21.7700 128.100 5 95 935 3 200 175 1 550 350 21.9000 128.050 5 97 937 21.8350 128.050 ST 90 937 21.9575 127.985 TC 97 21.8147 127.998 4 98 8 347
1979275N06159 1979 97 WP MM TIP 1979-10-17 06:00:00 TS 22.2779 127.935 95 935 tokyo main 659 647 OOOO_____OP___ jtwc_wp WP231979 22.4000 127.900 95 2 22.2000 128.000 5 95 935 3 200 175 1 550 350 0 22.3000 128.000 5 97 940 22.2000 127.900 ST 90 940 22.4000 127.900 TC 95 22.1675 127.913 4 97 8 348
1979275N06159 1979 97 WP MM TIP 1979-10-17 09:00:00 TS 22.6348 127.854 main 647 623 PPPP_____PP___ WP231979 22.6925 127.850 95 2 22.6425 127.900 5 92 937 3 187 175 1 525 350 22.6425 127.893 5 92 940 22.5775 127.785 ST 90 940 22.6925 127.850 TC 95 22.5616 127.845 4 96 8 349
1979275N06159 1979 97 WP MM TIP 1979-10-17 12:00:00 TS 23.0167 127.783 90 940 tokyo main 623 601 OOOO_____OO___ jtwc_wp WP231979 23.0000 127.800 95 2 23.1000 127.800 5 90 940 9 175 175 1 500 350 0 23.0000 127.800 5 87 940 23.0000 127.700 ST 90 940 23.0000 127.800 TC 95 23.0000 127.800 4 95 9 349
1979275N06159 1979 97 WP MM TIP 1979-10-17 15:00:00 TS 23.4688 127.683 main 599 579 PPPP_____PP___ WP231979 23.4625 127.678 92 2 23.5425 127.663 5 90 940 9 175 175 1 500 350 23.4275 127.777 5 87 940 23.4850 127.613 ST 90 940 23.4625 127.678 TC 92 23.4326 127.689 4 93 10 352
1979275N06159 1979 97 WP MM TIP 1979-10-17 18:00:00 TS 23.9690 127.635 90 940 tokyo main 577 570 OOOO_____OP___ jtwc_wp WP231979 24.0000 127.600 90 2 24.0000 127.600 5 90 940 9 175 175 1 500 350 0 23.9000 127.800 5 87 940 24.0000 127.600 ST 90 940 24.0000 127.600 TC 90 23.9139 127.611 4 92 10 359
1979275N06159 1979 97 WP MM TIP 1979-10-17 21:00:00 TS 24.4625 127.674 main 577 575 PPPP_____PP___ WP231979 24.5198 127.626 90 2 24.4474 127.676 5 90 942 9 175 175 1 475 325 24.3623 127.791 5 82 945 24.4625 127.698 ST 85 942 24.5198 127.626 TC 90 24.4632 127.628 4 91 11 10
1979275N06159 1979 97 WP MM TIP 1979-10-18 00:00:00 TS 25.0333 127.850 90 945 tokyo main 594 593 OOOO_____OO___ jtwc_wp WP231979 25.1000 127.800 90 2 25.0000 127.900 5 90 945 9 175 175 2 450 300 0 24.9000 127.900 4 77 950 25.0000 127.900 T 80 945 25.1000 127.800 TC 90 25.1000 127.800 4 90 13 19
1979275N06159 1979 97 WP MM TIP 1979-10-18 03:00:00 TS 25.7018 128.148 main 617 552 PPPP_____PP___ WP231979 25.7396 128.104 87 2 25.7322 128.218 5 90 947 9 162 162 2 450 300 25.5249 128.211 4 77 950 25.6895 128.112 T 80 947 25.7396 128.104 TC 87 25.7851 128.137 4 86 16 26
1979275N06159 1979 97 WP MM TIP 1979-10-18 06:00:00 TS 26.4935 128.624 90 950 tokyo main 542 437 OOOO_____OP___ jtwc_wp WP231979 26.5000 128.600 85 2 26.6000 128.700 5 90 950 9 150 150 2 450 300 0 26.3000 128.700 4 77 950 26.5000 128.500 T 80 950 26.5000 128.600 TC 85 26.5608 128.644 4 82 20 31
1979275N06159 1979 97 WP MM TIP 1979-10-18 09:00:00 TS 27.3976 129.271 main 424 308 PPPP_____PP___ WP231979 27.4129 129.297 80 1 27.5271 129.318 5 85 952 9 150 150 2 450 300 27.2469 129.261 4 77 952 27.3548 129.146 T 75 952 27.4129 129.297 TC 80 27.4310 129.303 4 78 23 34
1979275N06159 1979 97 WP MM TIP 1979-10-18 12:00:00 TS 28.3833 130.067 80 955 tokyo main 295 200 OOOO_____OO___ jtwc_wp WP231979 28.4000 130.100 75 1 28.5000 130.100 5 80 955 9 150 150 2 450 300 0 28.3000 130.000 4 77 955 28.3000 130.000 T 70 955 28.4000 130.100 TC 75 28.4000 130.100 4 75 23 36
1979275N06159 1979 97 WP MM TIP 1979-10-18 15:00:00 TS 29.2880 130.841 main 189 123 PPPP_____PP___ WP231979 29.2878 130.766 75 1 29.3582 130.937 5 75 957 9 175 150 2 475 300 29.2661 130.879 4 72 957 29.2436 130.901 T 70 957 29.2878 130.766 TC 75 29.2844 130.797 4 73 25 38
1979275N06159 1979 97 WP MM TIP 1979-10-18 18:00:00 TS 30.3475 131.808 70 960 tokyo main 128 101 OOOO_____OP___ jtwc_wp WP231979 30.3000 131.600 75 1 30.4000 132.000 5 70 960 3 200 150 2 500 300 0 30.4000 132.000 4 68 960 30.4000 132.000 T 70 960 30.3000 131.600 TC 75 30.2848 131.651 4 72 31 38
1979275N06159 1979 97 WP MM TIP 1979-10-18 21:00:00 TS 31.6929 133.050 main 111 21 PPPP_____PP___ WP231979 31.5494 132.747 72 1 31.8055 133.335 5 70 962 3 200 150 2 500 300 31.8829 133.410 4 68 962 31.8770 133.286 T 67 962 31.5494 132.747 TC 72 31.4931 132.775 4 71 38 39
1979275N06159 1979 97 WP MM TIP 1979-10-19 00:00:00 TS 33.2667 134.633 70 965 tokyo main 37 0 OOOO_____OO___ jtwc_wp WP231979 33.0000 134.300 70 1 33.5000 135.000 5 70 965 3 200 150 2 500 300 0 33.5000 135.000 4 68 965 33.6000 134.900 T 65 965 33.0000 134.300 TC 70 33.0000 134.300 4 70 45 43
1979275N06159 1979 97 WP MM TIP 1979-10-19 03:00:00 TS 34.9655 136.666 main 9 0 PPPP_____PP___ WP231979 34.3985 136.189 65 1 35.3129 137.042 5 70 966 3 200 150 2 500 300 34.9280 136.519 4 63 965 35.3785 136.977 T 62 965 34.5584 136.352 TC 65 35.2165 136.913 4 65 50 45
1979275N06159 1979 97 WP MM TIP 1979-10-19 06:00:00 TS 36.8344 138.958 70 968 tokyo main 0 0 OOOO_____OP___ jtwc_wp WP231979 36.2000 138.600 60 0 37.3000 139.200 5 70 968 3 200 150 2 500 300 0 36.5000 138.200 3 58 965 37.3000 139.200 STS 60 965 36.2000 138.600 TC 60 37.6225 140.008 4 60 55 44
1979275N06159 1979 97 WP MM TIP 1979-10-19 09:00:00 TS 38.9521 141.427 main 0 0 PPPP_____PP___ WP231979 38.9980 142.077 55 0 39.4776 141.190 5 70 966 3 200 150 2 500 300 38.4357 140.309 3 58 965 39.3636 141.205 STS 60 965 37.8173 140.668 TC 55 39.8259 143.005 4 55 55 41
1979275N06159 1979 97 WP MM TIP 1979-10-19 12:00:00 TS 40.9667 143.561 70 965 tokyo main 105 34 OOOO_____OO___ jtwc_wp WP231979 41.5000 145.200 50 0 41.6000 143.000 5 70 965 3 200 150 3 500 300 0 40.5000 142.500 3 58 965 41.5000 143.100 STS 60 965 39.5000 142.600 TC 50 41.5000 145.200 5 50 46 36
1979275N06159 1979 97 WP MM TIP 1979-10-19 15:00:00 TS 42.6767 145.002 main 27 0 PPP______PP___ WP231979 42.7008 146.332 50 0 43.5430 144.600 5 960 3 3 42.5913 144.524 3 58 962 STS 41.2765 144.373 TC 50 42.4912 146.062 5 50 38 30
1979275N06159 1979 97 WP MM TIP 1979-10-19 18:00:00 MX 44.2636 146.100 956 tokyo main 0 0 OOO______OO___ jtwc_wp WP231979 43.1000 146.100 50 0 45.0000 146.000 6 956 0 0 0 44.4000 146.200 9 58 960 43.1000 146.100 TC 50 43.1000 146.100 5 50 34 29
1979275N06159 1979 97 WP MM TIP 1979-10-19 21:00:00 ET 45.6315 147.305 main 57 57 _PP___________ WP231979 -1 45.6767 147.304 6 954 0 0 45.5863 147.306 9 63 955 TC 5 25 39
1979275N06159 1979 97 WP MM TIP 1979-10-20 00:00:00 ET 46.2143 148.329 952 tokyo main 91 90 _OO___________ -1 46.0000 148.500 6 952 0 0 0 46.5000 148.100 9 68 950 19 52
1979275N06159 1979 97 WP MM TIP 1979-10-20 03:00:00 ET 46.7964 149.476 main 94 93 _PP___________ -1 46.4599 149.719 6 951 0 0 47.4693 148.989 9 68 950 20 57
1979275N06159 1979 97 WP MM TIP 1979-10-20 06:00:00 ET 47.3000 150.800 950 tokyo main 136 136 _OO___________ -1 47.0000 151.000 6 950 0 0 0 48.5000 150.000 9 68 950 22 65
1979275N06159 1979 97 WP MM TIP 1979-10-20 09:00:00 ET 47.7089 152.391 main 233 198 _P____________ -1 47.7089 152.391 6 951 0 0 9 25 61
1979275N06159 1979 97 WP MM TIP 1979-10-20 12:00:00 ET 48.5000 154.000 952 tokyo main 194 93 _O____________ -1 48.5000 154.000 6 952 0 0 0 28 57
1979275N06159 1979 97 WP MM TIP 1979-10-20 15:00:00 ET 49.2129 155.933 main 95 88 _P____________ -1 49.2129 155.933 6 954 0 0 30 60
1979275N06159 1979 97 WP MM TIP 1979-10-20 18:00:00 ET 50.0000 158.000 956 tokyo main 135 132 _O____________ -1 50.0000 158.000 6 956 0 0 0 32 55
1979275N06159 1979 97 WP MM TIP 1979-10-20 21:00:00 ET 51.0340 159.994 main 158 157 _P____________ -1 51.0340 159.994 6 960 0 0 32 52
1979275N06159 1979 97 WP MM TIP 1979-10-21 00:00:00 ET 52.0000 162.000 964 tokyo main 176 176 _O____________ -1 52.0000 162.000 6 964 0 0 0 29 58
1979275N06159 1979 97 WP MM TIP 1979-10-21 03:00:00 ET 52.5713 164.014 main 259 259 _P____________ -1 52.5713 164.014 6 967 0 0 26 68
1979275N06159 1979 97 WP MM TIP 1979-10-21 06:00:00 ET 53.0000 166.000 970 tokyo main 316 316 _O____________ -1 53.0000 166.000 6 970 0 0 0 25 67
1979275N06159 1979 97 WP MM TIP 1979-10-21 09:00:00 ET 53.5674 167.920 main 394 394 _P____________ -1 53.5674 167.920 6 973 0 0 26 67
1979275N06159 1979 97 WP MM TIP 1979-10-21 12:00:00 ET 54.0000 170.000 976 tokyo main 483 483 _O____________ -1 54.0000 170.000 6 976 0 0 0 27 79
1979275N06159 1979 97 WP MM TIP 1979-10-21 15:00:00 ET 54.0739 172.437 main 613 613 _P____________ -1 54.0739 172.437 6 979 0 0 29 90
1979275N06159 1979 97 WP MM TIP 1979-10-21 18:00:00 ET 54.0000 175.000 982 tokyo main 711 711 _O____________ -1 54.0000 175.000 6 982 0 0 0 29 90
1979275N06159 1979 97 WP MM TIP 1979-10-21 21:00:00 ET 54.0585 177.335 main 767 753 _P____________ -1 54.0585 177.335 6 985 0 0 29 90
1979275N06159 1979 97 EP CP TIP 1979-10-22 00:00:00 ET 54.0000 180.000 988 tokyo main 740 535 _O____________ -1 54.0000 180.000 6 988 0 0 0 35 97
1979275N06159 1979 97 EP CP TIP 1979-10-22 03:00:00 ET 53.6313 183.334 main 521 286 _P____________ -1 53.6313 -176.666 6 990 0 0 43 104
1979275N06159 1979 97 EP CP TIP 1979-10-22 06:00:00 ET 53.0000 187.000 main 273 _O____________ -1 53.0000 187.000 6 992 0 0 0 46 106

デジタル台風データ・検索

IBTrACS Databaseについて

本データベースは、米国NOAAが公開する1842年以降の世界の熱帯低気圧のベストトラックデータアーカイブInternational Best Track Archive for Climate Stewardship (IBTrACS)を、ウェブで閲覧しやすい形式に変換したものです。

最終更新日:2021-10-19